Time;durP1;ratioP1;P1;durP2;ratioP2;P2;SDS_P1;SDS_P2;PMS_P1;PMS_P2;Temp;Humidity;BMP_temperature;BMP_pressure;BME280_temperature;BME280_humidity;BME280_pressure;Samples;Min_cycle;Max_cycle;Signal;HPM_P1;HPM_P2
2022/01/21 00:01:32;;;;;;;12.23;4.73;;;;;;;2.51;57.50;100529.63;5006610;28;20226;-68
2022/01/21 00:04:00;;;;;;;10.53;4.83;;;;;;;2.27;58.23;100530.25;5006617;28;20236;-68
2022/01/21 00:06:26;;;;;;;7.60;4.70;;;;;;;2.02;58.92;100527.53;5006500;28;20233;-68
2022/01/21 00:08:54;;;;;;;10.93;4.77;;;;;;;2.15;58.22;100533.69;5006266;28;20798;-67
2022/01/21 00:11:23;;;;;;;7.20;4.23;;;;;;;2.60;57.20;100525.56;5010236;28;20233;-68
2022/01/21 00:13:50;;;;;;;8.10;4.27;;;;;;;2.84;56.84;100523.91;5009478;28;20230;-68
2022/01/21 00:16:20;;;;;;;12.77;5.20;;;;;;;2.93;56.07;100526.88;5010535;28;20233;-68
2022/01/21 00:18:59;;;;;;;10.60;4.77;;;;;;;2.49;56.80;100518.34;5009668;28;20235;-68
2022/01/21 00:32:31;;;;;;;9.07;4.10;;;;;;;2.56;56.25;100516.16;5010264;28;20229;-68
2022/01/21 00:34:59;;;;;;;12.60;5.33;;;;;;;2.75;55.81;100523.66;5009004;28;20237;-67
2022/01/21 00:37:26;;;;;;;6.87;4.20;;;;;;;1.81;57.88;100499.00;5010057;28;20249;-68
2022/01/21 00:39:56;;;;;;;7.40;4.47;;;;;;;2.08;58.07;100540.31;5009480;28;20226;-68
2022/01/21 00:44:53;;;;;;;10.93;5.43;;;;;;;1.79;59.48;100553.50;5009019;28;20226;-68
2022/01/21 00:47:20;;;;;;;10.43;4.83;;;;;;;1.41;59.79;100530.38;5009630;28;20240;-68
2022/01/21 00:49:47;;;;;;;11.73;5.60;;;;;;;1.18;60.64;100529.16;5009620;28;20235;-68
2022/01/21 00:52:14;;;;;;;11.13;5.03;;;;;;;2.09;58.88;100573.56;5008208;28;20227;-68
2022/01/21 00:54:41;;;;;;;10.03;4.93;;;;;;;1.73;59.53;100559.13;5008439;28;20233;-67
2022/01/21 00:57:09;;;;;;;8.17;5.13;;;;;;;1.52;59.72;100549.00;5009363;28;20232;-68
2022/01/21 00:59:36;;;;;;;12.07;5.13;;;;;;;1.27;60.05;100531.22;5009844;28;20615;-68
2022/01/21 01:02:04;;;;;;;9.83;5.63;;;;;;;1.71;58.90;100534.72;5009529;28;20228;-68
2022/01/21 01:04:32;;;;;;;10.57;5.67;;;;;;;1.66;58.87;100518.38;5008985;28;20227;-68
2022/01/21 01:06:59;;;;;;;17.27;5.70;;;;;;;2.48;57.35;100557.00;5008590;28;21666;-68
2022/01/21 01:09:26;;;;;;;13.20;5.40;;;;;;;2.64;56.78;100551.56;5008592;28;20224;-68
2022/01/21 01:20:07;;;;;;;8.80;5.60;;;;;;;2.52;57.09;100565.56;5009053;28;21012;-68
2022/01/21 01:27:51;;;;;;;8.00;4.40;;;;;;;1.92;58.06;100557.06;5008565;28;20243;-68
2022/01/21 01:30:22;;;;;;;9.60;4.57;;;;;;;1.43;59.74;100548.72;5009390;28;20224;-68
2022/01/21 01:32:50;;;;;;;7.27;4.50;;;;;;;1.32;60.21;100549.34;5007732;28;20233;-68
2022/01/21 01:35:20;;;;;;;11.37;4.57;;;;;;;1.92;58.89;100577.25;5009246;28;20714;-68
2022/01/21 01:38:14;;;;;;;13.43;4.50;;;;;;;2.31;57.62;100580.97;5007309;28;20233;-68
2022/01/21 01:51:18;;;;;;;7.47;4.03;;;;;;;2.17;57.61;100565.19;5008355;28;20804;-68
2022/01/21 01:53:52;;;;;;;12.67;4.37;;;;;;;1.95;58.63;100556.00;5007901;28;20233;-68
2022/01/21 01:56:26;;;;;;;9.17;4.10;;;;;;;1.85;59.04;100558.38;5008435;28;20221;-68
2022/01/21 01:58:53;;;;;;;10.23;4.53;;;;;;;2.40;57.33;100561.09;5007714;28;20243;-67
2022/01/21 02:01:20;;;;;;;11.33;4.73;;;;;;;1.11;60.05;100510.28;5008399;28;20234;-68
2022/01/21 02:03:47;;;;;;;9.80;4.50;;;;;;;1.52;59.79;100569.19;5007803;28;20232;-68
2022/01/21 02:06:14;;;;;;;11.20;4.90;;;;;;;1.45;60.02;100560.84;5008294;28;20238;-68
2022/01/21 02:08:41;;;;;;;9.93;4.83;;;;;;;2.29;57.97;100565.25;5007930;28;20245;-68
2022/01/21 02:11:08;;;;;;;10.80;5.40;;;;;;;2.56;57.41;100555.66;5008622;28;20231;-68
2022/01/21 02:13:42;;;;;;;8.67;5.50;;;;;;;2.85;56.37;100548.50;5007804;28;20253;-68
2022/01/21 02:21:43;;;;;;;10.17;4.63;;;;;;;2.66;57.05;100541.81;5027858;28;20234;-68
2022/01/21 02:24:18;;;;;;;11.23;4.20;;;;;;;1.51;60.00;100522.78;5025750;28;20851;-68
2022/01/21 02:26:46;;;;;;;7.20;4.30;;;;;;;2.19;58.46;100551.00;5025629;28;20229;-67
2022/01/21 02:29:25;;;;;;;9.13;4.03;;;;;;;2.62;57.45;100545.56;5018869;28;20241;-67
2022/01/21 02:31:54;;;;;;;12.00;4.40;;;;;;;2.67;57.30;100547.91;5014630;28;20235;-68
2022/01/21 02:34:21;;;;;;;11.70;4.40;;;;;;;1.38;60.79;100527.91;5020800;28;20229;-68
2022/01/21 02:36:48;;;;;;;11.27;4.20;;;;;;;0.59;62.79;100514.19;5022693;28;20242;-67
2022/01/21 02:39:15;;;;;;;7.93;4.40;;;;;;;0.72;62.83;100537.94;5018989;28;20239;-68
2022/01/21 02:41:43;;;;;;;10.67;4.90;;;;;;;2.38;58.60;100579.63;5015235;28;20230;-67
2022/01/21 02:44:14;;;;;;;8.63;4.37;;;;;;;2.43;57.85;100556.47;5010991;28;20636;-68
2022/01/21 02:46:43;;;;;;;11.73;5.03;;;;;;;2.42;57.88;100559.19;5019052;28;20231;-67
2022/01/21 02:49:10;;;;;;;13.47;5.43;;;;;;;1.87;59.13;100548.63;5016855;28;20248;-67
2022/01/21 02:51:38;;;;;;;10.00;5.17;;;;;;;2.27;58.08;100569.75;5015318;28;20336;-68
2022/01/21 02:54:06;;;;;;;9.83;5.20;;;;;;;2.29;58.21;100574.94;5026223;28;20222;-68
2022/01/21 02:56:36;;;;;;;8.37;4.37;;;;;;;2.29;58.26;100585.47;5027323;28;20218;-68
2022/01/21 02:59:05;;;;;;;14.33;5.57;;;;;;;1.97;59.33;100569.91;5014614;28;20236;-67
2022/01/21 03:01:35;;;;;;;11.80;4.90;;;;;;;1.99;59.23;100580.34;5018664;28;20222;-68
2022/01/21 03:04:04;;;;;;;9.17;5.57;;;;;;;1.87;59.68;100574.94;5025547;28;20739;-68
2022/01/21 03:06:33;;;;;;;11.73;5.70;;;;;;;2.38;57.75;100566.44;5026873;28;20234;-67
2022/01/21 03:09:00;;;;;;;13.80;6.63;;;;;;;1.43;59.72;100536.41;5026523;28;20256;-68
2022/01/21 03:11:28;;;;;;;7.60;4.87;;;;;;;1.62;60.35;100578.22;5016609;28;20706;-67
2022/01/21 03:13:56;;;;;;;9.33;4.70;;;;;;;1.37;60.95;100563.88;5006756;28;20356;-67
2022/01/21 03:16:24;;;;;;;10.63;4.83;;;;;;;1.28;60.93;100560.97;5006887;28;20277;-68
2022/01/21 03:18:51;;;;;;;8.53;4.50;;;;;;;1.53;60.90;100590.16;5007017;28;20236;-68
2022/01/21 03:21:18;;;;;;;10.20;4.93;;;;;;;1.41;60.23;100551.41;5007808;28;20223;-67
2022/01/21 03:23:49;;;;;;;8.30;4.70;;;;;;;1.72;60.21;100581.13;5006540;28;20702;-67
2022/01/21 03:26:22;;;;;;;8.53;5.00;;;;;;;1.84;59.73;100590.91;5007562;28;20761;-67
2022/01/21 03:28:51;;;;;;;11.00;4.63;;;;;;;1.33;61.16;100580.78;5006123;28;20223;-67
2022/01/21 03:31:18;;;;;;;11.37;5.30;;;;;;;0.91;61.88;100557.88;5007544;28;20607;-67
2022/01/21 03:33:45;;;;;;;7.77;5.07;;;;;;;1.15;62.01;100592.41;5006513;28;20222;-67
2022/01/21 03:36:13;;;;;;;11.33;4.80;;;;;;;1.12;61.09;100572.38;5007313;28;20221;-67
2022/01/21 03:38:41;;;;;;;9.13;4.70;;;;;;;1.49;61.15;100606.19;5006367;28;20218;-67
2022/01/21 03:41:08;;;;;;;9.30;4.40;;;;;;;0.83;61.61;100539.97;5007424;28;20603;-67
2022/01/21 03:43:35;;;;;;;7.30;4.57;;;;;;;1.19;60.75;100576.34;5006830;28;20223;-67
2022/01/21 03:46:03;;;;;;;9.60;4.57;;;;;;;0.87;61.32;100564.25;5009374;28;20545;-67
2022/01/21 03:48:30;;;;;;;9.53;5.13;;;;;;;1.21;61.54;100607.78;5010863;28;20233;-68
2022/01/21 03:50:57;;;;;;;10.33;4.50;;;;;;;1.00;61.56;100581.00;5010241;28;20238;-67
2022/01/21 03:53:24;;;;;;;9.07;4.53;;;;;;;1.34;60.68;100597.41;5010490;28;20234;-67
2022/01/21 03:55:51;;;;;;;11.97;5.67;;;;;;;0.71;61.92;100570.41;5009962;28;20277;-68
2022/01/21 03:58:18;;;;;;;19.87;8.70;;;;;;;2.02;58.78;100606.47;5010743;28;20931;-67
2022/01/21 04:00:51;;;;;;;15.17;7.93;;;;;;;0.89;61.51;100565.88;5010436;28;20587;-67
2022/01/21 04:03:19;;;;;;;11.07;5.13;;;;;;;1.40;60.52;100607.56;5009932;28;20225;-67
2022/01/21 04:05:46;;;;;;;10.83;5.60;;;;;;;1.66;59.92;100616.53;5010460;28;20224;-67
2022/01/21 04:08:13;;;;;;;11.90;5.80;;;;;;;1.75;59.18;100592.31;5010014;28;20232;-67
2022/01/21 04:10:42;;;;;;;12.03;6.83;;;;;;;0.93;61.05;100559.50;5010658;28;20231;-67
2022/01/21 04:13:18;;;;;;;26.10;12.90;;;;;;;1.08;60.97;100584.03;5002107;28;20224;-67
2022/01/21 04:15:52;;;;;;;12.17;6.07;;;;;;;1.05;61.44;100586.84;5010403;28;20229;-68
2022/01/21 04:18:19;;;;;;;8.87;5.03;;;;;;;1.44;60.11;100611.72;5010151;28;20245;-67
2022/01/21 04:20:48;;;;;;;10.40;4.97;;;;;;;2.08;58.35;100609.56;5009688;28;20229;-67
2022/01/21 04:23:16;;;;;;;9.37;4.50;;;;;;;2.02;58.07;100599.44;5009941;28;20240;-67
2022/01/21 04:25:44;;;;;;;11.20;5.00;;;;;;;1.39;60.08;100600.59;5009809;28;20228;-67
2022/01/21 04:28:11;;;;;;;8.97;4.93;;;;;;;1.71;59.46;100618.88;5009600;28;20221;-67
2022/01/21 04:30:39;;;;;;;14.77;4.83;;;;;;;1.24;59.46;100589.22;5008466;28;20236;-67
2022/01/21 04:33:06;;;;;;;9.73;5.37;;;;;;;0.71;60.75;100577.44;5009952;28;20218;-67
2022/01/21 04:35:33;;;;;;;9.53;4.80;;;;;;;1.28;60.94;100629.31;5007801;28;20233;-72
2022/01/21 04:38:04;;;;;;;9.63;4.30;;;;;;;2.04;58.49;100628.28;5008214;28;20225;-69
2022/01/21 04:40:35;;;;;;;9.80;5.00;;;;;;;2.65;56.76;100608.59;5007711;28;20228;-68
2022/01/21 04:48:36;;;;;;;11.03;5.60;;;;;;;1.62;58.96;100604.53;5007668;28;20873;-68
2022/01/21 04:51:15;;;;;;;11.67;4.90;;;;;;;1.99;57.61;100596.13;5008454;28;20873;-66
2022/01/21 04:53:44;;;;;;;8.77;4.20;;;;;;;1.78;58.83;100619.38;5007872;28;20227;-67
2022/01/21 04:56:12;;;;;;;10.90;4.87;;;;;;;2.15;57.57;100599.50;5004782;28;20227;-66
2022/01/21 04:58:40;;;;;;;9.87;4.70;;;;;;;1.57;58.86;100583.75;5009346;28;20232;-66
2022/01/21 05:01:08;;;;;;;8.90;4.10;;;;;;;1.93;58.58;100602.63;5009253;28;20222;-67
2022/01/21 05:03:37;;;;;;;10.00;4.80;;;;;;;1.70;58.97;100601.41;5026217;28;20232;-66
2022/01/21 05:06:04;;;;;;;8.73;5.00;;;;;;;2.09;57.54;100599.88;5012529;28;20611;-65
2022/01/21 05:08:52;;;;;;;10.30;4.80;;;;;;;1.76;58.95;100611.56;5028822;28;20236;-65
2022/01/21 05:11:20;;;;;;;11.00;5.10;;;;;;;1.79;59.09;100618.44;5019249;28;21539;-65
2022/01/21 05:14:44;;;;;;;6.93;4.57;;;;;;;1.43;59.70;100612.66;5009336;28;20233;-66
2022/01/21 05:16:39;;;;;;;11.57;4.80;;;;;;;0.66;60.98;100577.69;5011871;28;20227;-66
2022/01/21 05:19:17;;;;;;;9.50;4.30;;;;;;;0.45;62.63;100608.63;5014935;28;20725;-66
2022/01/21 05:21:47;;;;;;;7.70;4.67;;;;;;;-0.07;62.86;100590.47;5027545;28;20237;-65
2022/01/21 05:24:16;;;;;;;7.73;4.43;;;;;;;-0.38;63.75;100574.59;5026358;28;20225;-65
2022/01/21 05:26:52;;;;;;;10.50;4.47;;;;;;;0.01;63.62;100630.28;5026554;28;20222;-65
2022/01/21 05:29:22;;;;;;;6.70;4.40;;;;;;;-0.06;64.24;100642.03;5012410;28;20235;-66
2022/01/21 05:31:49;;;;;;;6.43;4.23;;;;;;;-0.40;64.27;100614.94;5007123;28;20230;-65
2022/01/21 05:34:16;;;;;;;5.47;4.30;;;;;;;-0.27;64.01;100628.25;5005087;28;20226;-66
2022/01/21 05:36:44;;;;;;;8.70;4.47;;;;;;;-0.70;64.33;100611.19;5005935;28;20230;-65
2022/01/21 05:39:12;;;;;;;12.20;5.40;;;;;;;-0.21;63.61;100646.28;5008831;28;20222;-66
2022/01/21 05:41:40;;;;;;;10.37;5.97;;;;;;;0.88;60.99;100671.88;5009073;28;20226;-66
2022/01/21 05:44:13;;;;;;;10.33;5.50;;;;;;;1.01;58.97;100630.84;5007753;28;20224;-66
2022/01/21 05:46:55;;;;;;;11.87;6.43;;;;;;;1.19;59.15;100656.97;5008335;28;20245;-65
2022/01/21 05:49:24;;;;;;;11.53;6.23;;;;;;;1.62;58.45;100669.41;5008853;28;20726;-65
2022/01/21 05:51:53;;;;;;;12.13;6.13;;;;;;;1.83;58.19;100672.53;5008520;28;20245;-66
2022/01/21 05:54:25;;;;;;;11.70;5.60;;;;;;;1.82;57.50;100648.03;5006731;28;20218;-65
2022/01/21 05:56:53;;;;;;;8.50;5.47;;;;;;;1.59;57.79;100648.56;5006455;28;20241;-65
2022/01/21 05:59:21;;;;;;;10.53;5.13;;;;;;;1.20;58.90;100654.25;5019907;28;20610;-65
2022/01/21 06:01:49;;;;;;;10.10;5.50;;;;;;;1.92;57.59;100672.84;5026803;28;20592;-65
2022/01/21 06:04:17;;;;;;;7.63;5.20;;;;;;;1.92;57.58;100674.59;5022743;28;20709;-65
2022/01/21 06:06:44;;;;;;;10.83;5.83;;;;;;;1.76;57.58;100674.69;4991746;28;20683;-65
2022/01/21 06:09:11;;;;;;;15.17;6.33;;;;;;;1.10;59.04;100666.25;5007221;28;20754;-65
2022/01/21 06:11:38;;;;;;;13.03;6.43;;;;;;;0.57;61.99;100696.34;5000762;28;20222;-66
2022/01/21 06:14:05;;;;;;;11.10;6.50;;;;;;;1.34;59.12;100698.13;4998114;28;20231;-66
2022/01/21 06:16:38;;;;;;;11.43;6.40;;;;;;;-0.50;62.90;100594.44;5008324;28;20595;-65
2022/01/21 06:19:04;;;;;;;7.87;5.77;;;;;;;0.47;61.36;100696.03;5007564;28;20831;-66
2022/01/21 06:21:31;;;;;;;9.33;6.03;;;;;;;0.04;63.22;100698.31;5007924;28;20220;-66
2022/01/21 06:23:58;;;;;;;12.63;5.77;;;;;;;0.13;62.61;100692.56;5007344;28;20223;-65
2022/01/21 06:26:25;;;;;;;12.30;5.83;;;;;;;0.78;61.80;100739.00;5021839;28;20219;-66
2022/01/21 06:28:52;;;;;;;14.33;5.73;;;;;;;0.65;61.82;100717.78;5027512;28;20829;-65
2022/01/21 06:31:19;;;;;;;9.53;6.20;;;;;;;-0.06;62.81;100666.47;5027663;28;20235;-65
2022/01/21 06:33:46;;;;;;;11.97;5.70;;;;;;;1.10;60.31;100725.84;5021313;28;20238;-65
2022/01/21 06:36:13;;;;;;;13.50;6.27;;;;;;;2.12;57.04;100678.66;5006561;28;20227;-65
2022/01/21 06:38:40;;;;;;;8.93;5.70;;;;;;;0.26;61.66;100656.88;5013858;28;20254;-65
2022/01/21 06:41:07;;;;;;;12.93;6.53;;;;;;;0.45;62.12;100708.38;5011899;28;20224;-65
2022/01/21 06:43:34;;;;;;;15.63;6.00;;;;;;;0.75;61.51;100721.59;5014211;28;20240;-65
2022/01/21 06:46:01;;;;;;;11.00;5.90;;;;;;;0.60;62.22;100731.16;5019255;28;20225;-65
2022/01/21 06:48:28;;;;;;;11.17;6.13;;;;;;;-0.11;64.03;100689.47;5019666;28;20328;-65
2022/01/21 06:50:55;;;;;;;11.20;5.53;;;;;;;-0.83;65.05;100648.56;5025143;28;20230;-65
2022/01/21 06:53:21;;;;;;;11.03;5.73;;;;;;;-0.36;64.80;100705.63;5025588;28;20223;-65
2022/01/21 06:55:48;;;;;;;12.27;6.13;;;;;;;-0.05;65.18;100741.63;5027305;28;20235;-65
2022/01/21 06:58:16;;;;;;;12.43;7.67;;;;;;;-1.23;64.91;100573.66;5015848;28;20237;-65
2022/01/21 07:00:43;;;;;;;15.57;7.73;;;;;;;-0.63;65.88;100702.59;5010715;28;20780;-65
2022/01/21 07:03:10;;;;;;;14.37;7.07;;;;;;;-0.18;65.29;100738.75;5007729;28;20235;-65
2022/01/21 07:05:38;;;;;;;12.80;7.67;;;;;;;0.48;63.02;100729.22;4998373;28;20232;-65
2022/01/21 07:08:05;;;;;;;11.10;7.30;;;;;;;0.35;63.74;100744.78;4999896;28;20235;-65
2022/01/21 07:10:32;;;;;;;17.23;7.70;;;;;;;1.41;60.27;100719.66;5006753;28;20237;-65
2022/01/21 07:13:03;;;;;;;11.23;6.07;;;;;;;2.31;57.42;100670.47;4993505;28;20832;-65
2022/01/21 07:15:30;;;;;;;10.37;5.47;;;;;;;0.94;60.26;100670.66;4992288;28;20601;-65
2022/01/21 07:17:57;;;;;;;12.13;6.77;;;;;;;-0.33;64.22;100666.97;4992307;28;20226;-64
2022/01/21 07:20:24;;;;;;;14.03;7.67;;;;;;;0.21;62.95;100694.81;4998235;28;20270;-65
2022/01/21 07:22:51;;;;;;;14.90;7.80;;;;;;;1.14;61.05;100732.59;4995339;28;20234;-65
2022/01/21 07:25:18;;;;;;;16.20;7.63;;;;;;;0.63;62.07;100717.88;5010412;28;20230;-64
2022/01/21 07:27:50;;;;;;;20.90;9.70;;;;;;;0.73;61.37;100715.59;5009665;28;20229;-65
2022/01/21 07:30:17;;;;;;;17.93;10.03;;;;;;;0.06;62.87;100680.72;5010970;28;20229;-64
2022/01/21 07:32:44;;;;;;;18.87;8.87;;;;;;;0.08;64.07;100732.19;5009242;28;20731;-63
2022/01/21 07:35:12;;;;;;;10.67;7.60;;;;;;;-0.02;64.32;100727.47;5011058;28;20251;-64
2022/01/21 07:37:59;;;;;;;11.47;7.10;;;;;;;0.13;64.26;100737.19;5009064;28;20230;-64
2022/01/21 07:40:27;;;;;;;14.33;7.37;;;;;;;0.83;61.32;100731.69;5011522;28;20583;-64
2022/01/21 07:42:54;;;;;;;9.80;7.43;;;;;;;-0.25;64.83;100718.19;5008442;28;20705;-64
2022/01/21 07:45:20;;;;;;;14.03;7.87;;;;;;;0.32;62.70;100723.09;5010321;28;20584;-64
2022/01/21 07:47:47;;;;;;;15.00;8.37;;;;;;;0.18;63.33;100729.06;5009191;28;20225;-64
2022/01/21 07:50:16;;;;;;;18.13;8.90;;;;;;;0.92;61.54;100740.84;5009140;28;20236;-64
2022/01/21 07:52:43;;;;;;;15.93;7.37;;;;;;;1.19;59.96;100723.50;5010164;28;20312;-64
2022/01/21 07:55:10;;;;;;;15.60;7.67;;;;;;;1.64;59.86;100741.19;5001788;28;20237;-64
2022/01/21 07:57:39;;;;;;;14.83;7.87;;;;;;;1.26;60.57;100738.94;5010508;28;20228;-64
2022/01/21 08:00:07;;;;;;;19.03;13.53;;;;;;;1.38;60.28;100720.72;5010192;28;20775;-64
2022/01/21 08:02:35;;;;;;;17.10;11.40;;;;;;;2.01;59.22;100720.59;5010755;28;20226;-64
2022/01/21 08:05:04;;;;;;;16.30;7.97;;;;;;;2.00;59.00;100726.78;5009024;28;20234;-64
2022/01/21 08:07:32;;;;;;;12.60;7.33;;;;;;;1.89;59.31;100722.19;5010699;28;20225;-64
2022/01/21 08:09:59;;;;;;;12.73;6.10;;;;;;;1.05;60.62;100688.47;5009758;28;20722;-63
2022/01/21 08:12:26;;;;;;;13.90;5.80;;;;;;;1.64;59.59;100715.72;5010193;28;20603;-64
2022/01/21 08:14:53;;;;;;;13.83;6.17;;;;;;;0.53;62.97;100726.34;5008869;28;20230;-64
2022/01/21 08:17:20;;;;;;;12.23;6.00;;;;;;;-0.35;66.81;100754.50;5009932;28;20222;-64
2022/01/21 08:19:47;;;;;;;15.97;5.73;;;;;;;0.80;61.21;100698.56;5009944;28;20230;-64
2022/01/21 08:22:14;;;;;;;8.50;5.57;;;;;;;1.13;61.25;100730.94;5010224;28;20227;-65
2022/01/21 08:24:41;;;;;;;14.60;5.60;;;;;;;0.73;62.16;100717.38;5008788;28;20223;-64
2022/01/21 08:27:08;;;;;;;12.27;6.27;;;;;;;0.91;62.52;100760.16;5007549;28;20752;-64
2022/01/21 08:29:35;;;;;;;14.30;6.43;;;;;;;1.06;61.97;100761.97;5010442;28;20234;-63
2022/01/21 08:32:03;;;;;;;19.83;10.17;;;;;;;0.79;63.11;100754.66;5009587;28;20232;-65
2022/01/21 08:34:34;;;;;;;16.43;9.27;;;;;;;1.04;62.42;100758.56;5009614;28;20231;-64
2022/01/21 08:37:04;;;;;;;19.53;8.13;;;;;;;0.54;63.78;100746.41;5009007;28;20234;-64
2022/01/21 08:39:32;;;;;;;16.93;9.10;;;;;;;1.51;61.12;100749.78;5008424;28;20218;-64
2022/01/21 08:41:59;;;;;;;20.50;10.87;;;;;;;1.73;60.40;100741.47;5010530;28;20244;-63
2022/01/21 08:44:26;;;;;;;16.40;11.07;;;;;;;1.90;59.60;100751.03;5009404;28;20711;-64
2022/01/21 08:46:53;;;;;;;19.03;9.67;;;;;;;1.15;61.50;100755.34;5007292;28;20222;-63
2022/01/21 08:49:37;;;;;;;16.57;9.13;;;;;;;0.35;64.33;100755.28;5008472;28;20231;-63
2022/01/21 08:52:05;;;;;;;22.07;7.53;;;;;;;-0.29;65.42;100712.22;5009793;28;20770;-64
2022/01/21 08:54:31;;;;;;;11.67;7.93;;;;;;;1.78;61.00;100757.00;5008785;28;20223;-64
2022/01/21 08:56:59;;;;;;;16.10;10.20;;;;;;;2.09;59.15;100707.78;5007772;28;20734;-64
2022/01/21 08:59:30;;;;;;;14.17;9.07;;;;;;;2.32;59.06;100711.66;5009398;28;20228;-64
2022/01/21 09:01:58;;;;;;;14.23;7.63;;;;;;;1.30;61.21;100701.06;5008520;28;20580;-64
2022/01/21 09:04:25;;;;;;;19.47;12.40;;;;;;;1.58;61.37;100739.75;5009087;28;20706;-64
2022/01/21 09:06:55;;;;;;;17.77;9.17;;;;;;;1.17;63.01;100746.41;5007070;28;20225;-64
2022/01/21 09:09:22;;;;;;;17.53;7.63;;;;;;;1.00;62.93;100717.63;5009312;28;20236;-64
2022/01/21 09:11:49;;;;;;;9.90;5.60;;;;;;;1.42;62.69;100736.31;5009399;28;20224;-64
2022/01/21 09:14:16;;;;;;;14.07;5.67;;;;;;;1.79;61.50;100748.19;5009033;28;20616;-64
2022/01/21 09:16:43;;;;;;;14.03;5.13;;;;;;;2.42;59.75;100731.19;5008344;28;20236;-64
2022/01/21 09:19:11;;;;;;;11.30;5.60;;;;;;;0.94;62.45;100696.94;5001321;28;20232;-64
2022/01/21 09:21:43;;;;;;;11.93;5.43;;;;;;;0.74;64.41;100772.47;5007796;28;20227;-64
2022/01/21 09:24:10;;;;;;;13.07;5.23;;;;;;;1.09;62.06;100743.38;5008543;28;20226;-64
2022/01/21 09:26:38;;;;;;;17.63;5.87;;;;;;;1.13;62.63;100752.78;5009271;28;20227;-64
2022/01/21 09:29:07;;;;;;;11.07;6.50;;;;;;;1.40;62.12;100765.31;5007693;28;20891;-64
2022/01/21 09:31:34;;;;;;;12.97;5.30;;;;;;;1.77;61.30;100768.47;5009167;28;20233;-64
2022/01/21 09:34:25;;;;;;;14.27;6.37;;;;;;;2.35;59.58;100750.13;5008426;28;20698;-64
2022/01/21 09:36:54;;;;;;;10.20;6.23;;;;;;;2.01;60.35;100763.53;5008621;28;20232;-64
2022/01/21 09:39:21;;;;;;;12.07;6.40;;;;;;;2.01;59.66;100728.50;5008588;28;20228;-64
2022/01/21 09:41:49;;;;;;;10.77;5.57;;;;;;;1.37;61.39;100739.19;5008541;28;20607;-64
2022/01/21 09:44:20;;;;;;;12.20;5.17;;;;;;;0.45;63.58;100717.13;5007757;28;20226;-63
2022/01/21 09:46:51;;;;;;;9.17;5.17;;;;;;;0.50;64.43;100753.59;5008314;28;20241;-64
2022/01/21 09:49:26;;;;;;;11.23;5.83;;;;;;;1.73;61.80;100782.72;5007177;28;20227;-64
2022/01/21 09:52:03;;;;;;;11.30;6.33;;;;;;;1.32;61.90;100754.38;5008882;28;20225;-64
2022/01/21 09:54:39;;;;;;;11.43;6.57;;;;;;;1.66;61.83;100774.34;5007889;28;20837;-64
2022/01/21 09:57:07;;;;;;;12.50;5.53;;;;;;;1.63;62.62;100799.97;5007683;28;20731;-64
2022/01/21 09:59:36;;;;;;;12.30;6.63;;;;;;;1.81;62.13;100785.75;5008308;28;20238;-64
2022/01/21 10:02:06;;;;;;;7.20;5.33;;;;;;;1.89;62.26;100803.75;5008470;28;20230;-65
2022/01/21 10:04:39;;;;;;;15.40;5.60;;;;;;;2.00;61.17;100785.53;5007954;28;20779;-65
2022/01/21 10:07:15;;;;;;;11.43;5.97;;;;;;;1.48;63.17;100801.69;4996507;28;20859;-65
2022/01/21 10:09:46;;;;;;;10.83;5.33;;;;;;;1.99;61.68;100807.53;5008429;28;20256;-64
2022/01/21 10:12:14;;;;;;;11.53;5.33;;;;;;;1.05;63.19;100768.13;5008361;28;20242;-64
2022/01/21 10:14:43;;;;;;;7.90;5.37;;;;;;;1.02;64.66;100812.97;5007531;28;20233;-64
2022/01/21 10:17:13;;;;;;;8.73;4.60;;;;;;;2.40;60.12;100777.03;5007822;28;20234;-65
2022/01/21 10:19:41;;;;;;;8.47;4.83;;;;;;;2.04;60.92;100783.53;5007023;28;20234;-64
2022/01/21 10:22:18;;;;;;;11.07;5.60;;;;;;;1.93;60.73;100771.03;5007505;28;20228;-64
2022/01/21 10:25:01;;;;;;;7.03;4.83;;;;;;;2.25;60.54;100784.91;5006804;28;20227;-64
2022/01/21 10:27:40;;;;;;;13.53;5.30;;;;;;;2.41;60.05;100778.69;5007479;28;20228;-64
2022/01/21 10:30:23;;;;;;;17.07;9.00;;;;;;;2.63;59.29;100751.88;5007799;28;20228;-64
2022/01/21 10:32:50;;;;;;;14.53;8.37;;;;;;;1.92;61.67;100786.00;5006627;28;20227;-64
2022/01/21 10:35:34;;;;;;;14.10;8.10;;;;;;;1.25;61.45;100729.38;5008211;28;20222;-64
2022/01/21 10:38:29;;;;;;;11.23;5.27;;;;;;;1.71;62.56;100792.50;5006947;28;20228;-65
2022/01/21 10:41:07;;;;;;;8.53;4.80;;;;;;;0.53;65.68;100761.31;5007970;28;20229;-64
2022/01/21 10:43:34;;;;;;;13.20;7.10;;;;;;;1.74;62.94;100752.88;5007135;28;20218;-65
2022/01/21 10:46:03;;;;;;;13.83;6.47;;;;;;;2.04;62.66;100759.84;5007849;28;20227;-65
2022/01/21 10:48:58;;;;;;;17.67;9.17;;;;;;;1.94;61.88;100744.63;5007156;28;20231;-64
2022/01/21 10:51:29;;;;;;;12.87;8.33;;;;;;;1.51;62.59;100749.78;5005185;28;20263;-64
2022/01/21 10:53:57;;;;;;;10.97;6.40;;;;;;;2.15;61.63;100767.97;5004350;28;20235;-65
2022/01/21 10:56:25;;;;;;;15.77;6.50;;;;;;;2.64;60.56;100750.94;5007930;28;20231;-65
2022/01/21 10:58:54;;;;;;;13.57;7.37;;;;;;;2.29;60.85;100744.28;5006357;28;20243;-64
2022/01/21 11:04:01;;;;;;;15.47;6.80;;;;;;;1.47;64.48;100750.91;5061447;28;20583;-64
2022/01/21 11:06:38;;;;;;;12.90;5.57;;;;;;;0.78;67.43;100800.25;5038491;28;20230;-66
2022/01/21 11:09:13;;;;;;;10.40;5.00;;;;;;;1.33;65.13;100784.97;5023417;28;20863;-66
2022/01/21 11:11:40;;;;;;;12.80;5.27;;;;;;;-0.58;70.19;100735.53;5023606;28;20222;-63
2022/01/21 11:14:12;;;;;;;10.50;5.27;;;;;;;0.09;68.59;100775.00;5023555;28;20228;-64
2022/01/21 11:16:43;;;;;;;10.17;4.40;;;;;;;0.28;67.37;100761.78;5023716;28;20725;-63
2022/01/21 11:19:34;;;;;;;7.90;4.70;;;;;;;-0.38;68.57;100723.19;5024422;28;20228;-63
2022/01/21 11:22:04;;;;;;;10.73;4.70;;;;;;;-0.28;68.75;100747.19;5022832;28;20227;-64
2022/01/21 11:24:33;;;;;;;7.63;4.60;;;;;;;0.95;66.48;100775.69;5023994;28;20231;-64
2022/01/21 11:27:08;;;;;;;9.30;5.10;;;;;;;-0.29;68.18;100722.72;5023052;28;20227;-63
2022/01/21 11:29:37;;;;;;;10.00;4.77;;;;;;;0.16;67.65;100737.03;5024350;28;20252;-65
2022/01/21 11:32:05;;;;;;;9.73;5.20;;;;;;;1.18;66.39;100755.16;5022353;28;20231;-63
2022/01/21 11:34:33;;;;;;;12.90;5.60;;;;;;;0.48;67.18;100749.38;5026668;28;20230;-64
2022/01/21 11:37:01;;;;;;;12.27;6.00;;;;;;;1.25;66.47;100753.03;5023549;28;20227;-64
2022/01/21 11:39:30;;;;;;;13.03;6.23;;;;;;;1.60;65.46;100739.66;5023631;28;20230;-64
2022/01/21 11:41:58;;;;;;;10.00;5.40;;;;;;;1.72;64.07;100712.66;5024497;28;20238;-64
2022/01/21 11:44:28;;;;;;;8.40;5.43;;;;;;;0.24;66.23;100684.16;5021835;28;20227;-64
2022/01/21 11:49:42;;;;;;;17.90;5.77;;;;;;;1.25;66.26;100756.50;5022648;28;20228;-64
2022/01/21 11:52:20;;;;;;;10.20;5.73;;;;;;;2.11;63.48;100730.47;5027947;28;20224;-64
2022/01/21 11:54:49;;;;;;;12.40;5.63;;;;;;;1.33;65.90;100763.94;5020604;28;20454;-64
2022/01/21 11:57:26;;;;;;;14.47;6.00;;;;;;;1.86;63.99;100746.03;5023315;28;20227;-64
2022/01/21 12:00:03;;;;;;;10.83;6.23;;;;;;;3.35;60.23;100699.81;5023249;28;20244;-64
2022/01/21 12:02:33;;;;;;;9.93;5.83;;;;;;;2.95;59.73;100664.66;5023430;28;20229;-64
2022/01/21 12:05:09;;;;;;;13.27;5.07;;;;;;;2.85;58.85;100664.44;5020632;28;20787;-64
2022/01/21 12:07:48;;;;;;;12.43;5.00;;;;;;;3.08;58.47;100668.19;5021604;28;20249;-64
2022/01/21 12:10:20;;;;;;;12.73;5.20;;;;;;;3.35;58.32;100662.06;5023857;28;20234;-64
2022/01/21 12:12:49;;;;;;;8.83;4.30;;;;;;;2.75;60.28;100697.56;5022227;28;20635;-64
2022/01/21 12:20:54;;;;;;;13.30;6.70;;;;;;;2.64;60.28;100682.44;5003824;28;20231;-63
2022/01/21 12:23:25;;;;;;;8.10;4.97;;;;;;;3.09;59.02;100680.44;5016997;28;20232;-63
2022/01/21 12:26:10;;;;;;;10.23;5.50;;;;;;;3.23;58.81;100655.78;5009606;28;20239;-63
2022/01/21 12:28:47;;;;;;;11.20;4.87;;;;;;;2.45;60.91;100706.47;5009778;28;20229;-66
2022/01/21 12:31:16;;;;;;;11.73;5.10;;;;;;;2.89;59.62;100689.63;5000586;28;20586;-63
2022/01/21 12:33:53;;;;;;;11.00;4.70;;;;;;;3.39;58.55;100696.06;5007003;28;20235;-63
2022/01/21 12:36:25;;;;;;;8.33;5.13;;;;;;;3.37;58.62;100678.63;5000264;28;20231;-64
2022/01/21 12:41:19;;;;;;;14.83;6.20;;;;;;;3.49;58.00;100651.44;5014896;28;20233;-66